sensor_id;sensor_type;location;lat;lon;timestamp;P1;durP1;ratioP1;P2;durP2;ratioP2
21426;SDS011;10874;49.452;11.050;2023-04-15T00:01:49;6.37;;;5.77;;
21426;SDS011;10874;49.452;11.050;2023-04-15T00:04:16;7.53;;;6.10;;
21426;SDS011;10874;49.452;11.050;2023-04-15T00:06:48;6.33;;;5.67;;
21426;SDS011;10874;49.452;11.050;2023-04-15T00:09:15;6.97;;;5.80;;
21426;SDS011;10874;49.452;11.050;2023-04-15T00:11:42;6.53;;;5.93;;
21426;SDS011;10874;49.452;11.050;2023-04-15T00:14:08;6.07;;;5.47;;
21426;SDS011;10874;49.452;11.050;2023-04-15T00:16:35;6.50;;;5.80;;
21426;SDS011;10874;49.452;11.050;2023-04-15T00:19:02;5.80;;;5.30;;
21426;SDS011;10874;49.452;11.050;2023-04-15T00:21:29;7.17;;;6.33;;
21426;SDS011;10874;49.452;11.050;2023-04-15T00:23:56;6.03;;;5.43;;
21426;SDS011;10874;49.452;11.050;2023-04-15T00:26:23;6.37;;;5.77;;
21426;SDS011;10874;49.452;11.050;2023-04-15T00:28:50;5.83;;;5.33;;
21426;SDS011;10874;49.452;11.050;2023-04-15T00:31:17;6.77;;;5.97;;
21426;SDS011;10874;49.452;11.050;2023-04-15T00:33:45;6.90;;;5.90;;
21426;SDS011;10874;49.452;11.050;2023-04-15T00:36:11;6.93;;;6.23;;
21426;SDS011;10874;49.452;11.050;2023-04-15T00:38:38;6.30;;;5.70;;
21426;SDS011;10874;49.452;11.050;2023-04-15T00:41:06;9.13;;;5.87;;
21426;SDS011;10874;49.452;11.050;2023-04-15T00:43:33;6.17;;;5.13;;
21426;SDS011;10874;49.452;11.050;2023-04-15T00:46:00;6.17;;;5.57;;
21426;SDS011;10874;49.452;11.050;2023-04-15T00:48:27;6.43;;;5.47;;
21426;SDS011;10874;49.452;11.050;2023-04-15T00:50:54;6.03;;;5.50;;
21426;SDS011;10874;49.452;11.050;2023-04-15T00:53:21;6.40;;;5.80;;
21426;SDS011;10874;49.452;11.050;2023-04-15T00:55:48;5.60;;;5.10;;
21426;SDS011;10874;49.452;11.050;2023-04-15T00:58:15;5.93;;;5.33;;
21426;SDS011;10874;49.452;11.050;2023-04-15T01:00:42;5.27;;;4.73;;
21426;SDS011;10874;49.452;11.050;2023-04-15T01:03:09;6.93;;;5.37;;
21426;SDS011;10874;49.452;11.050;2023-04-15T01:05:37;5.87;;;5.37;;
21426;SDS011;10874;49.452;11.050;2023-04-15T01:08:04;5.63;;;5.07;;
21426;SDS011;10874;49.452;11.050;2023-04-15T01:10:31;5.40;;;4.90;;
21426;SDS011;10874;49.452;11.050;2023-04-15T01:12:58;5.20;;;4.70;;
21426;SDS011;10874;49.452;11.050;2023-04-15T01:15:25;5.50;;;4.77;;
21426;SDS011;10874;49.452;11.050;2023-04-15T01:17:53;6.80;;;5.20;;
21426;SDS011;10874;49.452;11.050;2023-04-15T01:20:20;6.07;;;5.03;;
21426;SDS011;10874;49.452;11.050;2023-04-15T01:22:48;4.83;;;4.43;;
21426;SDS011;10874;49.452;11.050;2023-04-15T01:25:17;5.00;;;4.50;;
21426;SDS011;10874;49.452;11.050;2023-04-15T01:27:45;5.13;;;4.60;;
21426;SDS011;10874;49.452;11.050;2023-04-15T01:30:11;5.80;;;4.70;;
21426;SDS011;10874;49.452;11.050;2023-04-15T01:32:38;5.40;;;4.47;;
21426;SDS011;10874;49.452;11.050;2023-04-15T01:35:05;5.20;;;4.67;;
21426;SDS011;10874;49.452;11.050;2023-04-15T01:37:33;6.33;;;4.97;;
21426;SDS011;10874;49.452;11.050;2023-04-15T01:40:00;6.07;;;4.97;;
21426;SDS011;10874;49.452;11.050;2023-04-15T01:42:26;5.07;;;4.43;;
21426;SDS011;10874;49.452;11.050;2023-04-15T01:44:53;5.67;;;4.30;;
21426;SDS011;10874;49.452;11.050;2023-04-15T01:47:21;5.63;;;4.93;;
21426;SDS011;10874;49.452;11.050;2023-04-15T01:49:48;5.17;;;4.67;;
21426;SDS011;10874;49.452;11.050;2023-04-15T01:52:14;5.47;;;4.87;;
21426;SDS011;10874;49.452;11.050;2023-04-15T01:54:41;5.57;;;5.07;;
21426;SDS011;10874;49.452;11.050;2023-04-15T01:57:08;5.43;;;4.93;;
21426;SDS011;10874;49.452;11.050;2023-04-15T01:59:35;5.30;;;4.60;;
21426;SDS011;10874;49.452;11.050;2023-04-15T02:02:03;5.07;;;4.57;;
21426;SDS011;10874;49.452;11.050;2023-04-15T02:04:30;5.07;;;4.53;;
21426;SDS011;10874;49.452;11.050;2023-04-15T02:06:59;5.17;;;4.67;;
21426;SDS011;10874;49.452;11.050;2023-04-15T02:09:26;5.37;;;4.87;;
21426;SDS011;10874;49.452;11.050;2023-04-15T02:11:52;5.47;;;4.90;;
21426;SDS011;10874;49.452;11.050;2023-04-15T02:14:19;6.23;;;4.93;;
21426;SDS011;10874;49.452;11.050;2023-04-15T02:16:46;6.37;;;4.87;;
21426;SDS011;10874;49.452;11.050;2023-04-15T02:19:14;5.43;;;4.80;;
21426;SDS011;10874;49.452;11.050;2023-04-15T02:21:41;5.27;;;4.77;;
21426;SDS011;10874;49.452;11.050;2023-04-15T02:24:08;7.53;;;5.27;;
21426;SDS011;10874;49.452;11.050;2023-04-15T02:26:35;6.23;;;5.20;;
21426;SDS011;10874;49.452;11.050;2023-04-15T02:29:01;5.30;;;4.80;;
21426;SDS011;10874;49.452;11.050;2023-04-15T02:31:28;5.50;;;5.00;;
21426;SDS011;10874;49.452;11.050;2023-04-15T02:33:55;5.03;;;4.53;;
21426;SDS011;10874;49.452;11.050;2023-04-15T02:36:22;5.43;;;4.93;;
21426;SDS011;10874;49.452;11.050;2023-04-15T02:38:49;6.43;;;4.97;;
21426;SDS011;10874;49.452;11.050;2023-04-15T02:41:16;5.33;;;4.60;;
21426;SDS011;10874;49.452;11.050;2023-04-15T02:43:44;4.93;;;4.43;;
21426;SDS011;10874;49.452;11.050;2023-04-15T02:46:12;5.17;;;4.57;;
21426;SDS011;10874;49.452;11.050;2023-04-15T02:48:40;6.23;;;4.57;;
21426;SDS011;10874;49.452;11.050;2023-04-15T02:51:17;5.17;;;4.73;;
21426;SDS011;10874;49.452;11.050;2023-04-15T02:53:48;5.60;;;4.97;;
21426;SDS011;10874;49.452;11.050;2023-04-15T02:56:15;5.27;;;4.77;;
21426;SDS011;10874;49.452;11.050;2023-04-15T02:58:43;5.47;;;4.97;;
21426;SDS011;10874;49.452;11.050;2023-04-15T03:01:10;4.40;;;4.00;;
21426;SDS011;10874;49.452;11.050;2023-04-15T03:03:38;5.70;;;4.77;;
21426;SDS011;10874;49.452;11.050;2023-04-15T03:06:05;6.37;;;4.60;;
21426;SDS011;10874;49.452;11.050;2023-04-15T03:08:32;7.13;;;4.60;;
21426;SDS011;10874;49.452;11.050;2023-04-15T03:10:59;4.83;;;4.43;;
21426;SDS011;10874;49.452;11.050;2023-04-15T03:13:28;5.60;;;4.17;;
21426;SDS011;10874;49.452;11.050;2023-04-15T03:15:56;4.83;;;4.43;;
21426;SDS011;10874;49.452;11.050;2023-04-15T03:18:23;4.87;;;4.30;;
21426;SDS011;10874;49.452;11.050;2023-04-15T03:20:49;4.77;;;4.37;;
21426;SDS011;10874;49.452;11.050;2023-04-15T03:23:16;5.00;;;4.50;;
21426;SDS011;10874;49.452;11.050;2023-04-15T03:25:44;4.83;;;4.13;;
21426;SDS011;10874;49.452;11.050;2023-04-15T03:28:10;5.07;;;4.60;;
21426;SDS011;10874;49.452;11.050;2023-04-15T03:30:37;5.13;;;4.40;;
21426;SDS011;10874;49.452;11.050;2023-04-15T03:33:04;4.87;;;4.43;;
21426;SDS011;10874;49.452;11.050;2023-04-15T03:35:31;6.03;;;4.23;;
21426;SDS011;10874;49.452;11.050;2023-04-15T03:37:57;4.53;;;4.00;;
21426;SDS011;10874;49.452;11.050;2023-04-15T03:40:24;4.73;;;4.10;;
21426;SDS011;10874;49.452;11.050;2023-04-15T03:42:51;4.80;;;4.30;;
21426;SDS011;10874;49.452;11.050;2023-04-15T03:45:18;5.47;;;4.87;;
21426;SDS011;10874;49.452;11.050;2023-04-15T03:47:44;5.00;;;4.50;;
21426;SDS011;10874;49.452;11.050;2023-04-15T03:50:11;5.47;;;4.77;;
21426;SDS011;10874;49.452;11.050;2023-04-15T03:52:38;4.37;;;3.97;;
21426;SDS011;10874;49.452;11.050;2023-04-15T03:55:05;5.33;;;4.30;;
21426;SDS011;10874;49.452;11.050;2023-04-15T03:57:32;5.10;;;4.60;;
21426;SDS011;10874;49.452;11.050;2023-04-15T04:00:04;6.37;;;4.73;;
21426;SDS011;10874;49.452;11.050;2023-04-15T04:02:37;5.73;;;5.10;;
21426;SDS011;10874;49.452;11.050;2023-04-15T04:05:04;5.10;;;4.63;;
21426;SDS011;10874;49.452;11.050;2023-04-15T04:07:31;5.43;;;4.93;;
21426;SDS011;10874;49.452;11.050;2023-04-15T04:09:57;5.40;;;4.63;;
21426;SDS011;10874;49.452;11.050;2023-04-15T04:12:24;5.87;;;5.23;;
21426;SDS011;10874;49.452;11.050;2023-04-15T04:14:51;5.90;;;4.87;;
21426;SDS011;10874;49.452;11.050;2023-04-15T04:17:17;6.67;;;5.33;;
21426;SDS011;10874;49.452;11.050;2023-04-15T04:19:44;5.70;;;5.20;;
21426;SDS011;10874;49.452;11.050;2023-04-15T04:22:11;5.43;;;4.53;;
21426;SDS011;10874;49.452;11.050;2023-04-15T04:24:38;5.50;;;4.90;;
21426;SDS011;10874;49.452;11.050;2023-04-15T04:27:04;6.20;;;5.00;;
21426;SDS011;10874;49.452;11.050;2023-04-15T04:29:31;5.50;;;4.97;;
21426;SDS011;10874;49.452;11.050;2023-04-15T04:31:58;5.40;;;4.90;;
21426;SDS011;10874;49.452;11.050;2023-04-15T04:34:25;5.30;;;4.80;;
21426;SDS011;10874;49.452;11.050;2023-04-15T04:36:52;6.20;;;5.50;;
21426;SDS011;10874;49.452;11.050;2023-04-15T04:39:18;8.03;;;5.67;;
21426;SDS011;10874;49.452;11.050;2023-04-15T04:41:45;5.07;;;4.57;;
21426;SDS011;10874;49.452;11.050;2023-04-15T04:44:12;5.20;;;4.70;;
21426;SDS011;10874;49.452;11.050;2023-04-15T04:46:38;5.47;;;4.97;;
21426;SDS011;10874;49.452;11.050;2023-04-15T04:49:05;5.63;;;4.73;;
21426;SDS011;10874;49.452;11.050;2023-04-15T04:51:32;5.83;;;5.23;;
21426;SDS011;10874;49.452;11.050;2023-04-15T04:53:59;5.60;;;5.10;;
21426;SDS011;10874;49.452;11.050;2023-04-15T04:56:29;5.73;;;4.90;;
21426;SDS011;10874;49.452;11.050;2023-04-15T04:58:55;5.27;;;4.70;;
21426;SDS011;10874;49.452;11.050;2023-04-15T05:01:22;4.40;;;4.00;;
21426;SDS011;10874;49.452;11.050;2023-04-15T05:03:49;6.80;;;5.60;;
21426;SDS011;10874;49.452;11.050;2023-04-15T05:06:16;6.40;;;5.53;;
21426;SDS011;10874;49.452;11.050;2023-04-15T05:08:42;5.87;;;4.60;;
21426;SDS011;10874;49.452;11.050;2023-04-15T05:11:09;4.97;;;4.50;;
21426;SDS011;10874;49.452;11.050;2023-04-15T05:13:36;5.43;;;4.93;;
21426;SDS011;10874;49.452;11.050;2023-04-15T05:16:04;6.40;;;4.83;;
21426;SDS011;10874;49.452;11.050;2023-04-15T05:18:31;5.67;;;5.00;;
21426;SDS011;10874;49.452;11.050;2023-04-15T05:20:58;5.67;;;5.00;;
21426;SDS011;10874;49.452;11.050;2023-04-15T05:23:25;5.50;;;5.00;;
21426;SDS011;10874;49.452;11.050;2023-04-15T05:25:52;6.03;;;4.97;;
21426;SDS011;10874;49.452;11.050;2023-04-15T05:28:19;6.20;;;5.60;;
21426;SDS011;10874;49.452;11.050;2023-04-15T05:30:45;6.07;;;5.40;;
21426;SDS011;10874;49.452;11.050;2023-04-15T05:33:12;5.83;;;5.33;;
21426;SDS011;10874;49.452;11.050;2023-04-15T05:35:39;6.23;;;5.03;;
21426;SDS011;10874;49.452;11.050;2023-04-15T05:38:06;5.30;;;4.73;;
21426;SDS011;10874;49.452;11.050;2023-04-15T05:40:32;6.57;;;5.20;;
21426;SDS011;10874;49.452;11.050;2023-04-15T05:42:59;5.23;;;4.70;;
21426;SDS011;10874;49.452;11.050;2023-04-15T05:45:26;6.37;;;5.00;;
21426;SDS011;10874;49.452;11.050;2023-04-15T05:47:53;6.47;;;5.60;;
21426;SDS011;10874;49.452;11.050;2023-04-15T05:50:20;6.93;;;5.67;;
21426;SDS011;10874;49.452;11.050;2023-04-15T05:52:46;6.90;;;5.20;;
21426;SDS011;10874;49.452;11.050;2023-04-15T05:55:13;6.53;;;5.07;;
21426;SDS011;10874;49.452;11.050;2023-04-15T05:57:40;6.53;;;5.83;;
21426;SDS011;10874;49.452;11.050;2023-04-15T06:00:07;5.67;;;5.10;;
21426;SDS011;10874;49.452;11.050;2023-04-15T06:02:36;6.17;;;5.57;;
21426;SDS011;10874;49.452;11.050;2023-04-15T06:05:03;6.47;;;5.33;;
21426;SDS011;10874;49.452;11.050;2023-04-15T06:07:37;7.17;;;5.03;;
21426;SDS011;10874;49.452;11.050;2023-04-15T06:10:04;6.40;;;5.50;;
21426;SDS011;10874;49.452;11.050;2023-04-15T06:12:31;6.07;;;5.10;;
21426;SDS011;10874;49.452;11.050;2023-04-15T06:14:58;5.80;;;5.20;;
21426;SDS011;10874;49.452;11.050;2023-04-15T06:17:26;6.23;;;5.63;;
21426;SDS011;10874;49.452;11.050;2023-04-15T06:19:52;6.17;;;5.57;;
21426;SDS011;10874;49.452;11.050;2023-04-15T06:22:21;6.50;;;5.90;;
21426;SDS011;10874;49.452;11.050;2023-04-15T06:24:51;6.07;;;5.47;;
21426;SDS011;10874;49.452;11.050;2023-04-15T06:27:17;6.03;;;5.43;;
21426;SDS011;10874;49.452;11.050;2023-04-15T06:29:44;6.13;;;5.17;;
21426;SDS011;10874;49.452;11.050;2023-04-15T06:32:11;6.53;;;5.93;;
21426;SDS011;10874;49.452;11.050;2023-04-15T06:34:38;6.00;;;5.40;;
21426;SDS011;10874;49.452;11.050;2023-04-15T06:37:05;7.20;;;6.20;;
21426;SDS011;10874;49.452;11.050;2023-04-15T06:39:32;6.17;;;5.57;;
21426;SDS011;10874;49.452;11.050;2023-04-15T06:41:58;6.43;;;5.80;;
21426;SDS011;10874;49.452;11.050;2023-04-15T06:44:25;11.03;;;6.77;;
21426;SDS011;10874;49.452;11.050;2023-04-15T06:46:52;6.53;;;5.47;;
21426;SDS011;10874;49.452;11.050;2023-04-15T06:49:19;6.40;;;5.40;;
21426;SDS011;10874;49.452;11.050;2023-04-15T06:51:46;6.20;;;5.60;;
21426;SDS011;10874;49.452;11.050;2023-04-15T06:54:13;5.90;;;5.23;;
21426;SDS011;10874;49.452;11.050;2023-04-15T06:56:39;5.93;;;5.33;;
21426;SDS011;10874;49.452;11.050;2023-04-15T06:59:07;5.97;;;5.30;;
21426;SDS011;10874;49.452;11.050;2023-04-15T07:01:34;6.13;;;5.53;;
21426;SDS011;10874;49.452;11.050;2023-04-15T07:04:01;6.23;;;5.60;;
21426;SDS011;10874;49.452;11.050;2023-04-15T07:06:28;9.00;;;5.87;;
21426;SDS011;10874;49.452;11.050;2023-04-15T07:08:54;6.27;;;5.67;;
21426;SDS011;10874;49.452;11.050;2023-04-15T07:11:21;6.50;;;5.90;;
21426;SDS011;10874;49.452;11.050;2023-04-15T07:13:48;8.00;;;6.27;;
21426;SDS011;10874;49.452;11.050;2023-04-15T07:16:14;7.03;;;6.33;;
21426;SDS011;10874;49.452;11.050;2023-04-15T07:18:41;6.30;;;5.70;;
21426;SDS011;10874;49.452;11.050;2023-04-15T07:21:10;7.47;;;6.70;;
21426;SDS011;10874;49.452;11.050;2023-04-15T07:23:37;8.53;;;6.53;;
21426;SDS011;10874;49.452;11.050;2023-04-15T07:26:04;10.90;;;7.27;;
21426;SDS011;10874;49.452;11.050;2023-04-15T07:28:31;10.07;;;7.07;;
21426;SDS011;10874;49.452;11.050;2023-04-15T07:30:58;6.57;;;5.83;;
21426;SDS011;10874;49.452;11.050;2023-04-15T07:33:25;4.90;;;4.50;;
21426;SDS011;10874;49.452;11.050;2023-04-15T07:35:51;9.10;;;5.63;;
21426;SDS011;10874;49.452;11.050;2023-04-15T07:38:18;5.73;;;5.13;;
21426;SDS011;10874;49.452;11.050;2023-04-15T07:40:45;6.07;;;5.47;;
21426;SDS011;10874;49.452;11.050;2023-04-15T07:43:12;5.60;;;5.10;;
21426;SDS011;10874;49.452;11.050;2023-04-15T07:45:39;8.13;;;5.43;;
21426;SDS011;10874;49.452;11.050;2023-04-15T07:48:06;5.83;;;5.13;;
21426;SDS011;10874;49.452;11.050;2023-04-15T07:50:33;5.80;;;5.30;;
21426;SDS011;10874;49.452;11.050;2023-04-15T07:53:00;5.53;;;5.03;;
21426;SDS011;10874;49.452;11.050;2023-04-15T07:55:27;5.57;;;4.90;;
21426;SDS011;10874;49.452;11.050;2023-04-15T07:57:54;3.67;;;3.37;;
21426;SDS011;10874;49.452;11.050;2023-04-15T08:00:20;4.50;;;4.10;;
21426;SDS011;10874;49.452;11.050;2023-04-15T08:02:47;4.50;;;3.77;;
21426;SDS011;10874;49.452;11.050;2023-04-15T08:05:15;4.83;;;4.00;;
21426;SDS011;10874;49.452;11.050;2023-04-15T08:07:42;5.30;;;4.43;;
21426;SDS011;10874;49.452;11.050;2023-04-15T08:10:09;4.20;;;3.83;;
21426;SDS011;10874;49.452;11.050;2023-04-15T08:12:39;4.53;;;4.13;;
21426;SDS011;10874;49.452;11.050;2023-04-15T08:15:07;4.80;;;4.40;;
21426;SDS011;10874;49.452;11.050;2023-04-15T08:17:33;4.57;;;4.03;;
21426;SDS011;10874;49.452;11.050;2023-04-15T08:20:00;4.80;;;4.27;;
21426;SDS011;10874;49.452;11.050;2023-04-15T08:22:27;3.70;;;3.40;;
21426;SDS011;10874;49.452;11.050;2023-04-15T08:24:54;4.13;;;3.73;;
21426;SDS011;10874;49.452;11.050;2023-04-15T08:27:20;4.97;;;3.77;;
21426;SDS011;10874;49.452;11.050;2023-04-15T08:29:47;4.00;;;3.60;;
21426;SDS011;10874;49.452;11.050;2023-04-15T08:32:14;3.10;;;2.80;;
21426;SDS011;10874;49.452;11.050;2023-04-15T08:34:41;2.73;;;2.53;;
21426;SDS011;10874;49.452;11.050;2023-04-15T08:37:08;2.83;;;2.17;;
21426;SDS011;10874;49.452;11.050;2023-04-15T08:39:37;3.03;;;2.50;;
21426;SDS011;10874;49.452;11.050;2023-04-15T08:42:05;2.50;;;1.73;;
21426;SDS011;10874;49.452;11.050;2023-04-15T08:44:33;2.00;;;1.80;;
21426;SDS011;10874;49.452;11.050;2023-04-15T08:47:02;1.73;;;1.63;;
21426;SDS011;10874;49.452;11.050;2023-04-15T08:49:29;2.97;;;1.53;;
21426;SDS011;10874;49.452;11.050;2023-04-15T08:51:57;1.37;;;1.20;;
21426;SDS011;10874;49.452;11.050;2023-04-15T08:54:25;1.30;;;1.13;;
21426;SDS011;10874;49.452;11.050;2023-04-15T08:56:52;1.37;;;1.27;;
21426;SDS011;10874;49.452;11.050;2023-04-15T08:59:20;1.60;;;1.27;;
21426;SDS011;10874;49.452;11.050;2023-04-15T09:01:48;1.47;;;1.20;;
21426;SDS011;10874;49.452;11.050;2023-04-15T09:04:16;1.73;;;1.30;;
21426;SDS011;10874;49.452;11.050;2023-04-15T09:06:43;1.33;;;1.23;;
21426;SDS011;10874;49.452;11.050;2023-04-15T09:09:11;1.20;;;1.10;;
21426;SDS011;10874;49.452;11.050;2023-04-15T09:11:37;1.80;;;1.60;;
21426;SDS011;10874;49.452;11.050;2023-04-15T09:14:04;1.30;;;1.20;;
21426;SDS011;10874;49.452;11.050;2023-04-15T09:16:31;2.83;;;1.57;;
21426;SDS011;10874;49.452;11.050;2023-04-15T09:18:58;2.07;;;1.37;;
21426;SDS011;10874;49.452;11.050;2023-04-15T09:21:25;2.27;;;1.50;;
21426;SDS011;10874;49.452;11.050;2023-04-15T09:23:58;2.07;;;1.60;;
21426;SDS011;10874;49.452;11.050;2023-04-15T09:26:29;1.67;;;1.40;;
21426;SDS011;10874;49.452;11.050;2023-04-15T09:29:02;2.07;;;1.80;;
21426;SDS011;10874;49.452;11.050;2023-04-15T09:31:29;2.13;;;1.97;;
21426;SDS011;10874;49.452;11.050;2023-04-15T09:33:56;2.10;;;1.90;;
21426;SDS011;10874;49.452;11.050;2023-04-15T09:36:23;2.07;;;1.80;;
21426;SDS011;10874;49.452;11.050;2023-04-15T09:38:55;3.67;;;2.00;;
21426;SDS011;10874;49.452;11.050;2023-04-15T09:41:24;2.00;;;1.90;;
21426;SDS011;10874;49.452;11.050;2023-04-15T09:43:51;1.77;;;1.63;;
21426;SDS011;10874;49.452;11.050;2023-04-15T09:46:18;2.10;;;1.90;;
21426;SDS011;10874;49.452;11.050;2023-04-15T09:48:44;2.17;;;1.80;;
21426;SDS011;10874;49.452;11.050;2023-04-15T09:51:12;2.13;;;1.97;;
21426;SDS011;10874;49.452;11.050;2023-04-15T09:53:38;2.30;;;1.80;;
21426;SDS011;10874;49.452;11.050;2023-04-15T09:56:05;2.30;;;2.07;;
21426;SDS011;10874;49.452;11.050;2023-04-15T09:58:34;2.40;;;2.20;;
21426;SDS011;10874;49.452;11.050;2023-04-15T10:01:02;2.23;;;2.03;;
21426;SDS011;10874;49.452;11.050;2023-04-15T10:03:30;3.10;;;2.03;;
21426;SDS011;10874;49.452;11.050;2023-04-15T10:05:58;2.77;;;2.10;;
21426;SDS011;10874;49.452;11.050;2023-04-15T10:08:26;2.00;;;1.80;;
21426;SDS011;10874;49.452;11.050;2023-04-15T10:10:53;2.13;;;1.93;;
21426;SDS011;10874;49.452;11.050;2023-04-15T10:13:22;1.83;;;1.73;;
21426;SDS011;10874;49.452;11.050;2023-04-15T10:16:05;2.27;;;2.13;;
21426;SDS011;10874;49.452;11.050;2023-04-15T10:18:37;2.10;;;1.80;;
21426;SDS011;10874;49.452;11.050;2023-04-15T10:21:06;2.63;;;2.13;;
21426;SDS011;10874;49.452;11.050;2023-04-15T10:23:34;2.33;;;2.13;;
21426;SDS011;10874;49.452;11.050;2023-04-15T10:26:01;1.77;;;1.67;;
21426;SDS011;10874;49.452;11.050;2023-04-15T10:28:29;2.57;;;1.87;;
21426;SDS011;10874;49.452;11.050;2023-04-15T10:30:56;2.30;;;2.10;;
21426;SDS011;10874;49.452;11.050;2023-04-15T10:33:24;2.13;;;1.90;;
21426;SDS011;10874;49.452;11.050;2023-04-15T10:35:51;2.00;;;1.90;;
21426;SDS011;10874;49.452;11.050;2023-04-15T10:43:48;2.40;;;2.20;;
21426;SDS011;10874;49.452;11.050;2023-04-15T10:46:18;2.50;;;2.00;;
21426;SDS011;10874;49.452;11.050;2023-04-15T10:48:47;3.53;;;2.47;;
21426;SDS011;10874;49.452;11.050;2023-04-15T10:51:14;2.47;;;2.27;;
21426;SDS011;10874;49.452;11.050;2023-04-15T10:53:41;2.70;;;2.50;;
21426;SDS011;10874;49.452;11.050;2023-04-15T10:56:08;2.57;;;2.37;;
21426;SDS011;10874;49.452;11.050;2023-04-15T10:58:42;2.73;;;2.53;;
21426;SDS011;10874;49.452;11.050;2023-04-15T11:01:09;3.57;;;2.60;;
21426;SDS011;10874;49.452;11.050;2023-04-15T11:03:36;2.83;;;2.60;;
21426;SDS011;10874;49.452;11.050;2023-04-15T11:06:05;2.47;;;2.27;;
21426;SDS011;10874;49.452;11.050;2023-04-15T11:11:17;6.63;;;5.40;;
21426;SDS011;10874;49.452;11.050;2023-04-15T11:13:46;4.10;;;3.70;;
21426;SDS011;10874;49.452;11.050;2023-04-15T11:16:13;2.87;;;2.67;;
21426;SDS011;10874;49.452;11.050;2023-04-15T11:18:40;3.73;;;2.40;;
21426;SDS011;10874;49.452;11.050;2023-04-15T11:21:07;2.50;;;2.13;;
21426;SDS011;10874;49.452;11.050;2023-04-15T11:23:36;2.47;;;2.27;;
21426;SDS011;10874;49.452;11.050;2023-04-15T11:26:04;2.20;;;2.00;;
21426;SDS011;10874;49.452;11.050;2023-04-15T11:28:35;2.50;;;2.30;;
21426;SDS011;10874;49.452;11.050;2023-04-15T11:31:14;2.60;;;2.10;;
21426;SDS011;10874;49.452;11.050;2023-04-15T11:33:46;3.97;;;2.00;;
21426;SDS011;10874;49.452;11.050;2023-04-15T11:36:18;2.70;;;2.37;;
21426;SDS011;10874;49.452;11.050;2023-04-15T11:38:45;1.73;;;1.63;;
21426;SDS011;10874;49.452;11.050;2023-04-15T11:41:13;2.10;;;1.90;;
21426;SDS011;10874;49.452;11.050;2023-04-15T11:43:39;2.37;;;1.90;;
21426;SDS011;10874;49.452;11.050;2023-04-15T11:46:06;2.20;;;2.00;;
21426;SDS011;10874;49.452;11.050;2023-04-15T11:48:34;2.43;;;2.23;;
21426;SDS011;10874;49.452;11.050;2023-04-15T11:51:05;2.20;;;2.00;;
21426;SDS011;10874;49.452;11.050;2023-04-15T11:53:36;2.80;;;2.00;;
21426;SDS011;10874;49.452;11.050;2023-04-15T11:56:04;2.47;;;2.20;;
21426;SDS011;10874;49.452;11.050;2023-04-15T11:58:32;2.00;;;1.80;;
21426;SDS011;10874;49.452;11.050;2023-04-15T12:00:59;1.90;;;1.70;;
21426;SDS011;10874;49.452;11.050;2023-04-15T12:03:27;2.20;;;2.00;;
21426;SDS011;10874;49.452;11.050;2023-04-15T12:13:57;1.87;;;1.77;;
21426;SDS011;10874;49.452;11.050;2023-04-15T12:16:26;1.87;;;1.60;;
21426;SDS011;10874;49.452;11.050;2023-04-15T12:18:54;2.00;;;1.90;;
21426;SDS011;10874;49.452;11.050;2023-04-15T12:21:25;2.00;;;1.90;;
21426;SDS011;10874;49.452;11.050;2023-04-15T12:23:52;1.70;;;1.60;;
21426;SDS011;10874;49.452;11.050;2023-04-15T12:26:30;2.17;;;1.87;;
21426;SDS011;10874;49.452;11.050;2023-04-15T12:29:06;1.50;;;1.40;;
21426;SDS011;10874;49.452;11.050;2023-04-15T12:31:34;2.07;;;1.87;;
21426;SDS011;10874;49.452;11.050;2023-04-15T12:34:02;1.53;;;1.33;;
21426;SDS011;10874;49.452;11.050;2023-04-15T12:36:30;1.50;;;1.40;;
21426;SDS011;10874;49.452;11.050;2023-04-15T12:39:03;1.73;;;1.63;;
21426;SDS011;10874;49.452;11.050;2023-04-15T12:41:33;1.70;;;1.60;;
21426;SDS011;10874;49.452;11.050;2023-04-15T12:44:00;2.30;;;1.80;;
21426;SDS011;10874;49.452;11.050;2023-04-15T12:46:27;1.97;;;1.70;;
21426;SDS011;10874;49.452;11.050;2023-04-15T12:48:53;2.13;;;1.87;;
21426;SDS011;10874;49.452;11.050;2023-04-15T12:51:20;2.00;;;1.90;;
21426;SDS011;10874;49.452;11.050;2023-04-15T12:53:47;2.17;;;1.97;;
21426;SDS011;10874;49.452;11.050;2023-04-15T12:56:15;2.00;;;1.90;;
21426;SDS011;10874;49.452;11.050;2023-04-15T12:58:42;2.17;;;1.97;;
21426;SDS011;10874;49.452;11.050;2023-04-15T13:01:09;2.20;;;2.10;;
21426;SDS011;10874;49.452;11.050;2023-04-15T13:03:36;1.73;;;1.63;;
21426;SDS011;10874;49.452;11.050;2023-04-15T13:06:03;1.90;;;1.80;;
21426;SDS011;10874;49.452;11.050;2023-04-15T13:08:30;1.87;;;1.77;;
21426;SDS011;10874;49.452;11.050;2023-04-15T13:10:57;2.23;;;2.03;;
21426;SDS011;10874;49.452;11.050;2023-04-15T13:13:24;2.00;;;1.90;;
21426;SDS011;10874;49.452;11.050;2023-04-15T13:15:51;1.80;;;1.70;;
21426;SDS011;10874;49.452;11.050;2023-04-15T13:18:17;1.40;;;1.30;;
21426;SDS011;10874;49.452;11.050;2023-04-15T13:20:44;1.30;;;1.20;;
21426;SDS011;10874;49.452;11.050;2023-04-15T13:23:11;1.47;;;1.37;;
21426;SDS011;10874;49.452;11.050;2023-04-15T13:25:38;1.50;;;1.40;;
21426;SDS011;10874;49.452;11.050;2023-04-15T13:28:04;2.17;;;1.97;;
21426;SDS011;10874;49.452;11.050;2023-04-15T13:30:32;2.00;;;1.90;;
21426;SDS011;10874;49.452;11.050;2023-04-15T13:32:58;1.70;;;1.60;;
21426;SDS011;10874;49.452;11.050;2023-04-15T13:35:25;1.83;;;1.73;;
21426;SDS011;10874;49.452;11.050;2023-04-15T13:37:52;1.70;;;1.60;;
21426;SDS011;10874;49.452;11.050;2023-04-15T13:40:19;1.53;;;1.43;;
21426;SDS011;10874;49.452;11.050;2023-04-15T13:42:46;2.00;;;1.60;;
21426;SDS011;10874;49.452;11.050;2023-04-15T13:45:13;1.80;;;1.70;;
21426;SDS011;10874;49.452;11.050;2023-04-15T13:47:39;1.80;;;1.70;;
21426;SDS011;10874;49.452;11.050;2023-04-15T13:50:07;1.90;;;1.80;;
21426;SDS011;10874;49.452;11.050;2023-04-15T13:52:34;1.83;;;1.70;;
21426;SDS011;10874;49.452;11.050;2023-04-15T13:55:01;1.90;;;1.80;;
21426;SDS011;10874;49.452;11.050;2023-04-15T13:57:45;1.87;;;1.77;;
21426;SDS011;10874;49.452;11.050;2023-04-15T14:00:12;2.30;;;2.10;;
21426;SDS011;10874;49.452;11.050;2023-04-15T14:02:39;2.60;;;2.23;;
21426;SDS011;10874;49.452;11.050;2023-04-15T14:05:07;2.03;;;1.93;;
21426;SDS011;10874;49.452;11.050;2023-04-15T14:07:34;1.90;;;1.80;;
21426;SDS011;10874;49.452;11.050;2023-04-15T14:10:01;1.70;;;1.60;;
21426;SDS011;10874;49.452;11.050;2023-04-15T14:12:28;1.90;;;1.80;;
21426;SDS011;10874;49.452;11.050;2023-04-15T14:14:54;2.37;;;2.17;;
21426;SDS011;10874;49.452;11.050;2023-04-15T14:17:21;1.77;;;1.67;;
21426;SDS011;10874;49.452;11.050;2023-04-15T14:19:48;2.43;;;1.87;;
21426;SDS011;10874;49.452;11.050;2023-04-15T14:22:15;2.03;;;1.93;;
21426;SDS011;10874;49.452;11.050;2023-04-15T14:24:44;2.03;;;1.83;;
21426;SDS011;10874;49.452;11.050;2023-04-15T14:27:10;1.90;;;1.80;;
21426;SDS011;10874;49.452;11.050;2023-04-15T14:29:38;1.80;;;1.70;;
21426;SDS011;10874;49.452;11.050;2023-04-15T14:32:05;2.20;;;2.00;;
21426;SDS011;10874;49.452;11.050;2023-04-15T14:34:38;1.93;;;1.77;;
21426;SDS011;10874;49.452;11.050;2023-04-15T14:37:05;1.70;;;1.60;;
21426;SDS011;10874;49.452;11.050;2023-04-15T14:39:32;2.33;;;1.90;;
21426;SDS011;10874;49.452;11.050;2023-04-15T14:41:59;3.33;;;1.70;;
21426;SDS011;10874;49.452;11.050;2023-04-15T14:44:26;2.00;;;1.40;;
21426;SDS011;10874;49.452;11.050;2023-04-15T14:46:52;2.03;;;1.50;;
21426;SDS011;10874;49.452;11.050;2023-04-15T14:49:20;1.63;;;1.53;;
21426;SDS011;10874;49.452;11.050;2023-04-15T14:51:47;1.60;;;1.50;;